sensor_id;sensor_type;location;lat;lon;timestamp;temperature;humidity
43089;DHT22;28709;52.030;5.652;2023-03-14T00:02:00;12.30;99.90
43089;DHT22;28709;52.030;5.652;2023-03-14T00:04:26;12.30;99.90
43089;DHT22;28709;52.030;5.652;2023-03-14T00:06:51;12.20;99.90
43089;DHT22;28709;52.030;5.652;2023-03-14T00:09:17;12.20;99.90
43089;DHT22;28709;52.030;5.652;2023-03-14T00:11:43;12.20;99.90
43089;DHT22;28709;52.030;5.652;2023-03-14T00:14:09;12.20;99.90
43089;DHT22;28709;52.030;5.652;2023-03-14T00:16:34;12.20;99.90
43089;DHT22;28709;52.030;5.652;2023-03-14T00:19:01;12.20;99.90
43089;DHT22;28709;52.030;5.652;2023-03-14T00:21:26;12.20;99.90
43089;DHT22;28709;52.030;5.652;2023-03-14T00:23:52;12.20;99.90
43089;DHT22;28709;52.030;5.652;2023-03-14T00:26:20;12.20;99.90
43089;DHT22;28709;52.030;5.652;2023-03-14T00:28:46;12.20;99.90
43089;DHT22;28709;52.030;5.652;2023-03-14T00:31:15;12.10;99.90
43089;DHT22;28709;52.030;5.652;2023-03-14T00:33:41;12.10;99.90
43089;DHT22;28709;52.030;5.652;2023-03-14T00:36:10;12.10;99.90
43089;DHT22;28709;52.030;5.652;2023-03-14T00:38:36;12.10;99.90
43089;DHT22;28709;52.030;5.652;2023-03-14T00:41:07;12.10;99.90
43089;DHT22;28709;52.030;5.652;2023-03-14T00:43:33;12.10;99.90
43089;DHT22;28709;52.030;5.652;2023-03-14T00:45:59;12.00;99.90
43089;DHT22;28709;52.030;5.652;2023-03-14T00:48:24;12.00;99.90
43089;DHT22;28709;52.030;5.652;2023-03-14T00:50:50;12.00;99.90
43089;DHT22;28709;52.030;5.652;2023-03-14T00:53:16;12.00;99.90
43089;DHT22;28709;52.030;5.652;2023-03-14T00:55:43;11.90;99.90
43089;DHT22;28709;52.030;5.652;2023-03-14T00:58:10;11.90;99.90
43089;DHT22;28709;52.030;5.652;2023-03-14T01:00:36;11.80;99.90
43089;DHT22;28709;52.030;5.652;2023-03-14T01:03:02;11.70;99.90
43089;DHT22;28709;52.030;5.652;2023-03-14T01:05:28;11.70;99.90
43089;DHT22;28709;52.030;5.652;2023-03-14T01:07:54;11.60;99.90
43089;DHT22;28709;52.030;5.652;2023-03-14T01:10:20;11.60;99.90
43089;DHT22;28709;52.030;5.652;2023-03-14T01:12:46;11.50;99.90
43089;DHT22;28709;52.030;5.652;2023-03-14T01:15:11;11.40;99.90
43089;DHT22;28709;52.030;5.652;2023-03-14T01:17:37;11.20;99.90
43089;DHT22;28709;52.030;5.652;2023-03-14T01:20:05;11.10;99.90
43089;DHT22;28709;52.030;5.652;2023-03-14T01:22:37;11.10;99.90
43089;DHT22;28709;52.030;5.652;2023-03-14T01:25:07;11.10;99.90
43089;DHT22;28709;52.030;5.652;2023-03-14T01:27:34;11.10;99.90
43089;DHT22;28709;52.030;5.652;2023-03-14T01:30:00;11.10;99.90
43089;DHT22;28709;52.030;5.652;2023-03-14T01:32:26;10.90;99.90
43089;DHT22;28709;52.030;5.652;2023-03-14T01:34:51;10.70;99.90
43089;DHT22;28709;52.030;5.652;2023-03-14T01:37:17;10.40;99.90
43089;DHT22;28709;52.030;5.652;2023-03-14T01:39:43;10.20;99.90
43089;DHT22;28709;52.030;5.652;2023-03-14T01:42:09;10.00;99.90
43089;DHT22;28709;52.030;5.652;2023-03-14T01:44:55;9.80;99.90
43089;DHT22;28709;52.030;5.652;2023-03-14T01:47:23;9.70;99.90
43089;DHT22;28709;52.030;5.652;2023-03-14T01:50:04;9.60;99.90
43089;DHT22;28709;52.030;5.652;2023-03-14T01:52:39;9.50;99.90
43089;DHT22;28709;52.030;5.652;2023-03-14T01:55:12;9.50;99.90
43089;DHT22;28709;52.030;5.652;2023-03-14T01:57:45;9.50;99.90
43089;DHT22;28709;52.030;5.652;2023-03-14T02:00:15;9.40;99.90
43089;DHT22;28709;52.030;5.652;2023-03-14T02:02:44;9.40;99.90
43089;DHT22;28709;52.030;5.652;2023-03-14T02:05:13;9.40;99.90
43089;DHT22;28709;52.030;5.652;2023-03-14T02:07:47;9.40;99.90
43089;DHT22;28709;52.030;5.652;2023-03-14T02:10:16;9.40;99.90
43089;DHT22;28709;52.030;5.652;2023-03-14T02:12:45;9.40;99.90
43089;DHT22;28709;52.030;5.652;2023-03-14T02:15:11;9.30;99.90
43089;DHT22;28709;52.030;5.652;2023-03-14T02:17:38;9.30;99.90
43089;DHT22;28709;52.030;5.652;2023-03-14T02:22:38;9.20;99.90
43089;DHT22;28709;52.030;5.652;2023-03-14T02:25:26;9.20;99.90
43089;DHT22;28709;52.030;5.652;2023-03-14T02:27:54;9.20;99.90
43089;DHT22;28709;52.030;5.652;2023-03-14T02:30:22;9.10;99.90
43089;DHT22;28709;52.030;5.652;2023-03-14T02:33:12;9.10;99.90
43089;DHT22;28709;52.030;5.652;2023-03-14T02:35:41;9.10;99.90
43089;DHT22;28709;52.030;5.652;2023-03-14T02:38:22;9.10;99.90
43089;DHT22;28709;52.030;5.652;2023-03-14T02:40:49;9.10;99.90
43089;DHT22;28709;52.030;5.652;2023-03-14T02:43:15;9.10;99.90
43089;DHT22;28709;52.030;5.652;2023-03-14T02:45:44;9.10;99.90
43089;DHT22;28709;52.030;5.652;2023-03-14T02:48:36;9.10;99.90
43089;DHT22;28709;52.030;5.652;2023-03-14T02:51:04;9.10;99.90
43089;DHT22;28709;52.030;5.652;2023-03-14T02:53:32;9.10;99.90
43089;DHT22;28709;52.030;5.652;2023-03-14T02:55:58;9.10;99.90
43089;DHT22;28709;52.030;5.652;2023-03-14T02:58:24;9.10;99.90
43089;DHT22;28709;52.030;5.652;2023-03-14T03:00:50;9.10;99.90
43089;DHT22;28709;52.030;5.652;2023-03-14T03:03:16;9.10;99.90
43089;DHT22;28709;52.030;5.652;2023-03-14T03:05:42;9.10;99.90
43089;DHT22;28709;52.030;5.652;2023-03-14T03:08:09;9.10;99.90
43089;DHT22;28709;52.030;5.652;2023-03-14T03:10:35;9.10;99.90
43089;DHT22;28709;52.030;5.652;2023-03-14T03:13:01;9.20;99.90
43089;DHT22;28709;52.030;5.652;2023-03-14T03:15:27;9.20;99.90
43089;DHT22;28709;52.030;5.652;2023-03-14T03:17:53;9.20;99.90
43089;DHT22;28709;52.030;5.652;2023-03-14T03:20:18;9.20;99.90
43089;DHT22;28709;52.030;5.652;2023-03-14T03:22:44;9.20;99.90
43089;DHT22;28709;52.030;5.652;2023-03-14T03:25:10;9.20;99.90
43089;DHT22;28709;52.030;5.652;2023-03-14T03:27:36;9.20;99.90
43089;DHT22;28709;52.030;5.652;2023-03-14T03:30:04;9.30;99.90
43089;DHT22;28709;52.030;5.652;2023-03-14T03:32:31;9.20;99.90
43089;DHT22;28709;52.030;5.652;2023-03-14T03:34:56;9.20;99.90
43089;DHT22;28709;52.030;5.652;2023-03-14T03:37:22;9.20;99.90
43089;DHT22;28709;52.030;5.652;2023-03-14T03:39:50;9.20;99.90
43089;DHT22;28709;52.030;5.652;2023-03-14T03:42:16;9.20;99.90
43089;DHT22;28709;52.030;5.652;2023-03-14T03:44:42;9.20;99.90
43089;DHT22;28709;52.030;5.652;2023-03-14T03:47:08;9.20;99.90
43089;DHT22;28709;52.030;5.652;2023-03-14T03:49:33;9.20;99.90
43089;DHT22;28709;52.030;5.652;2023-03-14T03:51:59;9.30;99.90
43089;DHT22;28709;52.030;5.652;2023-03-14T03:54:25;9.30;99.90
43089;DHT22;28709;52.030;5.652;2023-03-14T03:56:51;9.30;99.90
43089;DHT22;28709;52.030;5.652;2023-03-14T03:59:17;9.30;99.90
43089;DHT22;28709;52.030;5.652;2023-03-14T04:01:43;9.30;99.90
43089;DHT22;28709;52.030;5.652;2023-03-14T04:04:08;9.40;99.90
43089;DHT22;28709;52.030;5.652;2023-03-14T04:06:34;9.40;99.90
43089;DHT22;28709;52.030;5.652;2023-03-14T04:09:00;9.50;99.90
43089;DHT22;28709;52.030;5.652;2023-03-14T04:11:26;9.40;99.90
43089;DHT22;28709;52.030;5.652;2023-03-14T04:13:51;9.40;99.90
43089;DHT22;28709;52.030;5.652;2023-03-14T04:16:20;9.50;99.90
43089;DHT22;28709;52.030;5.652;2023-03-14T04:18:46;9.50;99.90
43089;DHT22;28709;52.030;5.652;2023-03-14T04:21:12;9.60;99.90
43089;DHT22;28709;52.030;5.652;2023-03-14T04:23:37;9.60;99.90
43089;DHT22;28709;52.030;5.652;2023-03-14T04:26:03;9.60;99.90
43089;DHT22;28709;52.030;5.652;2023-03-14T04:28:29;9.60;99.90
43089;DHT22;28709;52.030;5.652;2023-03-14T04:30:55;9.60;99.90
43089;DHT22;28709;52.030;5.652;2023-03-14T04:33:20;9.60;99.90
43089;DHT22;28709;52.030;5.652;2023-03-14T04:35:46;9.70;99.90
43089;DHT22;28709;52.030;5.652;2023-03-14T04:38:13;9.70;99.90
43089;DHT22;28709;52.030;5.652;2023-03-14T04:40:42;9.70;99.90
43089;DHT22;28709;52.030;5.652;2023-03-14T04:43:10;9.70;99.90
43089;DHT22;28709;52.030;5.652;2023-03-14T04:45:36;9.80;99.90
43089;DHT22;28709;52.030;5.652;2023-03-14T04:48:02;9.80;99.90
43089;DHT22;28709;52.030;5.652;2023-03-14T04:50:27;9.80;99.90
43089;DHT22;28709;52.030;5.652;2023-03-14T04:52:53;9.80;99.90
43089;DHT22;28709;52.030;5.652;2023-03-14T04:55:19;9.80;99.90
43089;DHT22;28709;52.030;5.652;2023-03-14T04:57:44;9.80;99.90
43089;DHT22;28709;52.030;5.652;2023-03-14T05:00:10;9.90;99.90
43089;DHT22;28709;52.030;5.652;2023-03-14T05:02:36;9.90;99.90
43089;DHT22;28709;52.030;5.652;2023-03-14T05:05:02;9.90;99.90
43089;DHT22;28709;52.030;5.652;2023-03-14T05:07:28;9.90;99.90
43089;DHT22;28709;52.030;5.652;2023-03-14T05:09:54;9.90;99.90
43089;DHT22;28709;52.030;5.652;2023-03-14T05:12:20;9.90;99.90
43089;DHT22;28709;52.030;5.652;2023-03-14T05:14:46;9.90;99.90
43089;DHT22;28709;52.030;5.652;2023-03-14T05:17:12;9.90;99.90
43089;DHT22;28709;52.030;5.652;2023-03-14T05:19:40;9.90;99.90
43089;DHT22;28709;52.030;5.652;2023-03-14T05:22:06;9.90;99.90
43089;DHT22;28709;52.030;5.652;2023-03-14T05:24:32;9.90;99.90
43089;DHT22;28709;52.030;5.652;2023-03-14T05:26:57;9.90;99.90
43089;DHT22;28709;52.030;5.652;2023-03-14T05:29:23;9.80;99.90
43089;DHT22;28709;52.030;5.652;2023-03-14T05:31:49;9.80;99.90
43089;DHT22;28709;52.030;5.652;2023-03-14T05:34:14;9.80;99.90
43089;DHT22;28709;52.030;5.652;2023-03-14T05:36:40;9.80;99.90
43089;DHT22;28709;52.030;5.652;2023-03-14T05:39:06;9.80;99.90
43089;DHT22;28709;52.030;5.652;2023-03-14T05:41:31;9.70;99.90
43089;DHT22;28709;52.030;5.652;2023-03-14T05:43:57;9.70;99.90
43089;DHT22;28709;52.030;5.652;2023-03-14T05:46:23;9.60;99.90
43089;DHT22;28709;52.030;5.652;2023-03-14T05:48:48;9.50;99.90
43089;DHT22;28709;52.030;5.652;2023-03-14T05:51:14;9.50;99.90
43089;DHT22;28709;52.030;5.652;2023-03-14T05:53:40;9.40;99.90
43089;DHT22;28709;52.030;5.652;2023-03-14T05:56:06;9.40;99.90
43089;DHT22;28709;52.030;5.652;2023-03-14T05:58:32;9.30;99.90
43089;DHT22;28709;52.030;5.652;2023-03-14T06:00:57;9.20;99.90
43089;DHT22;28709;52.030;5.652;2023-03-14T06:03:23;9.20;99.90
43089;DHT22;28709;52.030;5.652;2023-03-14T06:05:51;9.20;99.90
43089;DHT22;28709;52.030;5.652;2023-03-14T06:08:17;9.10;99.90
43089;DHT22;28709;52.030;5.652;2023-03-14T06:10:43;9.10;99.90
43089;DHT22;28709;52.030;5.652;2023-03-14T06:13:09;9.10;99.90
43089;DHT22;28709;52.030;5.652;2023-03-14T06:15:34;9.10;99.90
43089;DHT22;28709;52.030;5.652;2023-03-14T06:18:01;9.10;99.90
43089;DHT22;28709;52.030;5.652;2023-03-14T06:20:27;9.10;99.90
43089;DHT22;28709;52.030;5.652;2023-03-14T06:22:52;9.10;99.90
43089;DHT22;28709;52.030;5.652;2023-03-14T06:25:18;9.20;99.90
43089;DHT22;28709;52.030;5.652;2023-03-14T06:27:44;9.10;99.90
43089;DHT22;28709;52.030;5.652;2023-03-14T06:30:10;9.10;99.90
43089;DHT22;28709;52.030;5.652;2023-03-14T06:32:36;9.20;99.90
43089;DHT22;28709;52.030;5.652;2023-03-14T06:35:01;9.20;99.90
43089;DHT22;28709;52.030;5.652;2023-03-14T06:37:28;9.20;99.90
43089;DHT22;28709;52.030;5.652;2023-03-14T06:39:55;9.20;99.90
43089;DHT22;28709;52.030;5.652;2023-03-14T06:42:20;9.20;99.90
43089;DHT22;28709;52.030;5.652;2023-03-14T06:44:46;9.20;99.90
43089;DHT22;28709;52.030;5.652;2023-03-14T06:47:12;9.30;99.90
43089;DHT22;28709;52.030;5.652;2023-03-14T06:49:38;9.30;99.90
43089;DHT22;28709;52.030;5.652;2023-03-14T06:52:04;9.30;99.90
43089;DHT22;28709;52.030;5.652;2023-03-14T06:54:29;9.30;99.90
43089;DHT22;28709;52.030;5.652;2023-03-14T06:56:55;9.30;99.90
43089;DHT22;28709;52.030;5.652;2023-03-14T06:59:21;9.40;99.90
43089;DHT22;28709;52.030;5.652;2023-03-14T07:01:46;9.30;99.90
43089;DHT22;28709;52.030;5.652;2023-03-14T07:04:13;9.40;99.90
43089;DHT22;28709;52.030;5.652;2023-03-14T07:06:39;9.40;99.90
43089;DHT22;28709;52.030;5.652;2023-03-14T07:09:10;9.40;99.90
43089;DHT22;28709;52.030;5.652;2023-03-14T07:11:35;9.30;99.90
43089;DHT22;28709;52.030;5.652;2023-03-14T07:14:01;9.20;99.90
43089;DHT22;28709;52.030;5.652;2023-03-14T07:16:27;9.00;99.90
43089;DHT22;28709;52.030;5.652;2023-03-14T07:18:54;8.80;99.90
43089;DHT22;28709;52.030;5.652;2023-03-14T07:21:20;8.70;99.90
43089;DHT22;28709;52.030;5.652;2023-03-14T07:23:45;8.50;99.90
43089;DHT22;28709;52.030;5.652;2023-03-14T07:26:11;8.30;99.90
43089;DHT22;28709;52.030;5.652;2023-03-14T07:28:36;8.20;99.90
43089;DHT22;28709;52.030;5.652;2023-03-14T07:31:02;8.20;99.90
43089;DHT22;28709;52.030;5.652;2023-03-14T07:33:28;8.10;99.90
43089;DHT22;28709;52.030;5.652;2023-03-14T07:35:53;8.00;99.90
43089;DHT22;28709;52.030;5.652;2023-03-14T07:38:19;7.90;99.90
43089;DHT22;28709;52.030;5.652;2023-03-14T07:40:45;7.80;99.90
43089;DHT22;28709;52.030;5.652;2023-03-14T07:43:10;7.80;99.90
43089;DHT22;28709;52.030;5.652;2023-03-14T07:45:36;7.80;99.90
43089;DHT22;28709;52.030;5.652;2023-03-14T07:48:02;7.70;99.90
43089;DHT22;28709;52.030;5.652;2023-03-14T07:50:28;7.70;99.90
43089;DHT22;28709;52.030;5.652;2023-03-14T07:52:54;7.70;99.90
43089;DHT22;28709;52.030;5.652;2023-03-14T07:55:20;7.70;99.90
43089;DHT22;28709;52.030;5.652;2023-03-14T07:57:45;7.60;99.90
43089;DHT22;28709;52.030;5.652;2023-03-14T08:00:12;7.50;99.90
43089;DHT22;28709;52.030;5.652;2023-03-14T08:02:40;7.50;99.90
43089;DHT22;28709;52.030;5.652;2023-03-14T08:05:06;7.40;99.90
43089;DHT22;28709;52.030;5.652;2023-03-14T08:07:32;7.40;99.90
43089;DHT22;28709;52.030;5.652;2023-03-14T08:09:57;7.40;99.90
43089;DHT22;28709;52.030;5.652;2023-03-14T08:12:23;7.30;99.90
43089;DHT22;28709;52.030;5.652;2023-03-14T08:14:48;7.30;99.90
43089;DHT22;28709;52.030;5.652;2023-03-14T08:17:14;7.40;99.90
43089;DHT22;28709;52.030;5.652;2023-03-14T08:19:41;7.30;99.90
43089;DHT22;28709;52.030;5.652;2023-03-14T08:22:07;7.40;99.90
43089;DHT22;28709;52.030;5.652;2023-03-14T08:24:33;7.30;99.90
43089;DHT22;28709;52.030;5.652;2023-03-14T08:26:59;7.20;99.90
43089;DHT22;28709;52.030;5.652;2023-03-14T08:29:24;7.10;99.90
43089;DHT22;28709;52.030;5.652;2023-03-14T08:31:50;7.00;99.90
43089;DHT22;28709;52.030;5.652;2023-03-14T08:34:16;6.80;99.90
43089;DHT22;28709;52.030;5.652;2023-03-14T08:36:42;6.50;99.90
43089;DHT22;28709;52.030;5.652;2023-03-14T08:39:08;6.30;99.90
43089;DHT22;28709;52.030;5.652;2023-03-14T08:41:34;6.20;99.90
43089;DHT22;28709;52.030;5.652;2023-03-14T08:44:06;6.10;99.90
43089;DHT22;28709;52.030;5.652;2023-03-14T08:46:31;6.00;99.90
43089;DHT22;28709;52.030;5.652;2023-03-14T08:48:57;6.10;99.90
43089;DHT22;28709;52.030;5.652;2023-03-14T08:51:23;6.20;99.90
43089;DHT22;28709;52.030;5.652;2023-03-14T08:53:48;6.20;99.90
43089;DHT22;28709;52.030;5.652;2023-03-14T08:56:14;6.20;99.90
43089;DHT22;28709;52.030;5.652;2023-03-14T08:58:40;6.20;99.90
43089;DHT22;28709;52.030;5.652;2023-03-14T09:01:08;6.00;99.90
43089;DHT22;28709;52.030;5.652;2023-03-14T09:03:34;6.00;99.90
43089;DHT22;28709;52.030;5.652;2023-03-14T09:06:04;6.00;99.90
43089;DHT22;28709;52.030;5.652;2023-03-14T09:08:31;6.00;99.90
43089;DHT22;28709;52.030;5.652;2023-03-14T09:10:57;6.00;99.90
43089;DHT22;28709;52.030;5.652;2023-03-14T09:13:23;6.20;99.90
43089;DHT22;28709;52.030;5.652;2023-03-14T09:15:56;6.20;99.90
43089;DHT22;28709;52.030;5.652;2023-03-14T09:18:22;6.20;99.90
43089;DHT22;28709;52.030;5.652;2023-03-14T09:20:48;6.30;99.90
43089;DHT22;28709;52.030;5.652;2023-03-14T09:23:14;6.40;99.90
43089;DHT22;28709;52.030;5.652;2023-03-14T09:25:39;6.40;99.90
43089;DHT22;28709;52.030;5.652;2023-03-14T09:28:05;6.40;99.90
43089;DHT22;28709;52.030;5.652;2023-03-14T09:30:31;6.50;99.90
43089;DHT22;28709;52.030;5.652;2023-03-14T09:32:57;6.60;99.90
43089;DHT22;28709;52.030;5.652;2023-03-14T09:35:23;6.60;99.90
43089;DHT22;28709;52.030;5.652;2023-03-14T09:37:49;6.70;99.90
43089;DHT22;28709;52.030;5.652;2023-03-14T09:40:16;6.70;99.90
43089;DHT22;28709;52.030;5.652;2023-03-14T09:42:42;6.60;99.90
43089;DHT22;28709;52.030;5.652;2023-03-14T09:45:17;6.40;99.90
43089;DHT22;28709;52.030;5.652;2023-03-14T09:47:44;6.40;99.90
43089;DHT22;28709;52.030;5.652;2023-03-14T09:50:14;6.40;99.90
43089;DHT22;28709;52.030;5.652;2023-03-14T09:52:44;6.40;99.90
43089;DHT22;28709;52.030;5.652;2023-03-14T09:55:14;6.50;99.90
43089;DHT22;28709;52.030;5.652;2023-03-14T09:57:42;6.60;99.90
43089;DHT22;28709;52.030;5.652;2023-03-14T10:00:20;6.80;99.90
43089;DHT22;28709;52.030;5.652;2023-03-14T10:05:34;6.90;99.90
43089;DHT22;28709;52.030;5.652;2023-03-14T10:07:59;6.90;99.90
43089;DHT22;28709;52.030;5.652;2023-03-14T10:10:26;6.90;99.90
43089;DHT22;28709;52.030;5.652;2023-03-14T10:13:22;7.00;99.90
43089;DHT22;28709;52.030;5.652;2023-03-14T10:18:19;6.90;99.90
43089;DHT22;28709;52.030;5.652;2023-03-14T10:20:50;7.00;99.90
43089;DHT22;28709;52.030;5.652;2023-03-14T10:23:31;6.90;99.90
43089;DHT22;28709;52.030;5.652;2023-03-14T10:31:09;7.30;99.90
43089;DHT22;28709;52.030;5.652;2023-03-14T10:33:37;7.30;99.90
43089;DHT22;28709;52.030;5.652;2023-03-14T10:36:22;7.30;99.90
43089;DHT22;28709;52.030;5.652;2023-03-14T10:38:49;7.40;99.90
43089;DHT22;28709;52.030;5.652;2023-03-14T10:41:24;7.50;99.90
43089;DHT22;28709;52.030;5.652;2023-03-14T10:43:56;7.40;99.90
43089;DHT22;28709;52.030;5.652;2023-03-14T10:46:24;7.20;99.90
43089;DHT22;28709;52.030;5.652;2023-03-14T10:48:51;6.80;99.90
43089;DHT22;28709;52.030;5.652;2023-03-14T10:51:29;6.30;99.90
43089;DHT22;28709;52.030;5.652;2023-03-14T10:54:22;6.00;99.90
43089;DHT22;28709;52.030;5.652;2023-03-14T10:56:59;6.10;99.90
43089;DHT22;28709;52.030;5.652;2023-03-14T10:59:29;6.10;99.90
43089;DHT22;28709;52.030;5.652;2023-03-14T11:12:46;6.90;99.90
43089;DHT22;28709;52.030;5.652;2023-03-14T11:15:35;7.00;99.90
43089;DHT22;28709;52.030;5.652;2023-03-14T11:21:02;7.20;99.90
43089;DHT22;28709;52.030;5.652;2023-03-14T11:23:50;7.30;99.90
43089;DHT22;28709;52.030;5.652;2023-03-14T11:29:17;7.30;99.90
43089;DHT22;28709;52.030;5.652;2023-03-14T11:31:45;7.30;99.90
43089;DHT22;28709;52.030;5.652;2023-03-14T11:37:34;7.30;99.90
43089;DHT22;28709;52.030;5.652;2023-03-14T11:40:20;7.30;99.90
43089;DHT22;28709;52.030;5.652;2023-03-14T11:42:53;7.40;99.90
43089;DHT22;28709;52.030;5.652;2023-03-14T11:45:29;7.80;99.90
43089;DHT22;28709;52.030;5.652;2023-03-14T11:48:19;8.20;99.90
43089;DHT22;28709;52.030;5.652;2023-03-14T11:50:48;8.40;99.90
43089;DHT22;28709;52.030;5.652;2023-03-14T11:56:02;8.50;99.90
43089;DHT22;28709;52.030;5.652;2023-03-14T11:58:33;8.60;99.90
43089;DHT22;28709;52.030;5.652;2023-03-14T12:01:08;8.70;99.90
43089;DHT22;28709;52.030;5.652;2023-03-14T12:03:52;8.90;99.90
43089;DHT22;28709;52.030;5.652;2023-03-14T12:06:22;9.00;99.90
43089;DHT22;28709;52.030;5.652;2023-03-14T12:08:55;9.30;99.90
43089;DHT22;28709;52.030;5.652;2023-03-14T12:14:03;9.80;99.90
43089;DHT22;28709;52.030;5.652;2023-03-14T12:16:46;9.90;99.90
43089;DHT22;28709;52.030;5.652;2023-03-14T12:19:21;10.00;99.90
43089;DHT22;28709;52.030;5.652;2023-03-14T12:24:30;9.20;99.90
43089;DHT22;28709;52.030;5.652;2023-03-14T12:26:59;9.20;99.90
43089;DHT22;28709;52.030;5.652;2023-03-14T12:29:25;9.80;99.90
43089;DHT22;28709;52.030;5.652;2023-03-14T12:34:27;10.60;96.60
43089;DHT22;28709;52.030;5.652;2023-03-14T12:39:58;10.70;94.80
43089;DHT22;28709;52.030;5.652;2023-03-14T12:45:26;11.30;94.60
43089;DHT22;28709;52.030;5.652;2023-03-14T12:48:18;11.20;93.50
43089;DHT22;28709;52.030;5.652;2023-03-14T12:51:34;10.80;93.70
43089;DHT22;28709;52.030;5.652;2023-03-14T12:56:24;10.60;91.40
43089;DHT22;28709;52.030;5.652;2023-03-14T12:59:55;10.90;91.70
43089;DHT22;28709;52.030;5.652;2023-03-14T13:04:31;11.30;91.60
43089;DHT22;28709;52.030;5.652;2023-03-14T13:07:00;11.80;90.80
43089;DHT22;28709;52.030;5.652;2023-03-14T13:11:56;12.40;88.10
43089;DHT22;28709;52.030;5.652;2023-03-14T13:14:28;12.60;84.00
43089;DHT22;28709;52.030;5.652;2023-03-14T13:16:54;12.60;84.60
43089;DHT22;28709;52.030;5.652;2023-03-14T13:19:23;12.50;80.30
43089;DHT22;28709;52.030;5.652;2023-03-14T13:21:50;11.50;81.30
43089;DHT22;28709;52.030;5.652;2023-03-14T13:24:23;11.10;81.10
43089;DHT22;28709;52.030;5.652;2023-03-14T13:26:49;10.50;84.00
43089;DHT22;28709;52.030;5.652;2023-03-14T13:31:50;11.10;84.30
43089;DHT22;28709;52.030;5.652;2023-03-14T13:34:16;11.60;83.70
43089;DHT22;28709;52.030;5.652;2023-03-14T13:36:42;12.00;80.50
43089;DHT22;28709;52.030;5.652;2023-03-14T13:39:16;12.20;79.10
43089;DHT22;28709;52.030;5.652;2023-03-14T13:41:43;12.20;78.40
43089;DHT22;28709;52.030;5.652;2023-03-14T13:44:15;11.60;78.80
43089;DHT22;28709;52.030;5.652;2023-03-14T13:46:41;11.00;80.80
43089;DHT22;28709;52.030;5.652;2023-03-14T13:49:11;10.80;82.60
43089;DHT22;28709;52.030;5.652;2023-03-14T13:51:41;10.50;83.30
43089;DHT22;28709;52.030;5.652;2023-03-14T13:54:16;10.30;82.60
43089;DHT22;28709;52.030;5.652;2023-03-14T13:56:42;10.00;82.10
43089;DHT22;28709;52.030;5.652;2023-03-14T13:59:25;9.80;82.90
43089;DHT22;28709;52.030;5.652;2023-03-14T14:01:52;9.60;82.80
43089;DHT22;28709;52.030;5.652;2023-03-14T14:04:23;9.40;81.80
43089;DHT22;28709;52.030;5.652;2023-03-14T14:06:58;9.20;83.40
43089;DHT22;28709;52.030;5.652;2023-03-14T14:09:27;9.00;83.70
43089;DHT22;28709;52.030;5.652;2023-03-14T14:11:58;8.80;84.60
43089;DHT22;28709;52.030;5.652;2023-03-14T14:14:37;8.80;85.40
43089;DHT22;28709;52.030;5.652;2023-03-14T14:17:06;8.70;86.40
43089;DHT22;28709;52.030;5.652;2023-03-14T14:19:34;8.70;86.40
43089;DHT22;28709;52.030;5.652;2023-03-14T14:22:01;8.70;86.80
43089;DHT22;28709;52.030;5.652;2023-03-14T14:24:32;8.70;86.60
43089;DHT22;28709;52.030;5.652;2023-03-14T14:27:02;8.70;86.90
43089;DHT22;28709;52.030;5.652;2023-03-14T14:29:33;8.60;87.30
43089;DHT22;28709;52.030;5.652;2023-03-14T14:37:25;8.40;87.60
43089;DHT22;28709;52.030;5.652;2023-03-14T14:39:57;8.40;87.70
43089;DHT22;28709;52.030;5.652;2023-03-14T14:42:27;8.30;87.00
43089;DHT22;28709;52.030;5.652;2023-03-14T14:44:53;8.30;86.90
43089;DHT22;28709;52.030;5.652;2023-03-14T14:47:22;8.20;87.40
43089;DHT22;28709;52.030;5.652;2023-03-14T14:49:49;8.10;88.30
43089;DHT22;28709;52.030;5.652;2023-03-14T14:52:18;8.10;88.60
43089;DHT22;28709;52.030;5.652;2023-03-14T14:54:47;8.10;87.60
43089;DHT22;28709;52.030;5.652;2023-03-14T14:57:40;8.00;87.50
43089;DHT22;28709;52.030;5.652;2023-03-14T15:00:17;8.00;87.00
43089;DHT22;28709;52.030;5.652;2023-03-14T15:02:48;8.00;88.30
43089;DHT22;28709;52.030;5.652;2023-03-14T15:05:16;8.00;88.00
43089;DHT22;28709;52.030;5.652;2023-03-14T15:07:42;8.10;88.30
43089;DHT22;28709;52.030;5.652;2023-03-14T15:10:14;8.10;88.50
43089;DHT22;28709;52.030;5.652;2023-03-14T15:12:40;8.00;88.70
43089;DHT22;28709;52.030;5.652;2023-03-14T15:15:06;8.00;89.30
43089;DHT22;28709;52.030;5.652;2023-03-14T15:17:32;8.10;88.80
43089;DHT22;28709;52.030;5.652;2023-03-14T15:19:58;8.00;88.50
43089;DHT22;28709;52.030;5.652;2023-03-14T15:22:24;7.90;88.10
43089;DHT22;28709;52.030;5.652;2023-03-14T15:24:49;7.80;89.10
43089;DHT22;28709;52.030;5.652;2023-03-14T15:27:17;7.80;89.70
43089;DHT22;28709;52.030;5.652;2023-03-14T15:29:43;7.80;89.70
43089;DHT22;28709;52.030;5.652;2023-03-14T15:32:14;7.80;89.70
43089;DHT22;28709;52.030;5.652;2023-03-14T15:34:41;7.80;89.10
43089;DHT22;28709;52.030;5.652;2023-03-14T15:37:15;7.80;90.00
43089;DHT22;28709;52.030;5.652;2023-03-14T15:39:44;7.70;89.00
43089;DHT22;28709;52.030;5.652;2023-03-14T15:42:10;7.60;89.50
43089;DHT22;28709;52.030;5.652;2023-03-14T15:44:36;7.50;89.90
43089;DHT22;28709;52.030;5.652;2023-03-14T15:47:02;7.60;90.20
43089;DHT22;28709;52.030;5.652;2023-03-14T15:49:28;7.70;90.30
43089;DHT22;28709;52.030;5.652;2023-03-14T15:51:54;7.70;90.30
43089;DHT22;28709;52.030;5.652;2023-03-14T15:54:20;7.70;90.50
43089;DHT22;28709;52.030;5.652;2023-03-14T15:56:45;7.70;90.10
43089;DHT22;28709;52.030;5.652;2023-03-14T15:59:11;7.70;89.30
43089;DHT22;28709;52.030;5.652;2023-03-14T16:01:37;7.50;89.30
43089;DHT22;28709;52.030;5.652;2023-03-14T16:04:02;7.40;89.70
43089;DHT22;28709;52.030;5.652;2023-03-14T16:06:29;7.30;90.00
43089;DHT22;28709;52.030;5.652;2023-03-14T16:08:56;7.30;89.90
43089;DHT22;28709;52.030;5.652;2023-03-14T16:11:22;7.20;89.90
43089;DHT22;28709;52.030;5.652;2023-03-14T16:13:47;7.10;88.60
43089;DHT22;28709;52.030;5.652;2023-03-14T16:16:14;7.10;89.10
43089;DHT22;28709;52.030;5.652;2023-03-14T16:18:40;7.00;89.20
43089;DHT22;28709;52.030;5.652;2023-03-14T16:21:09;6.90;89.90
43089;DHT22;28709;52.030;5.652;2023-03-14T16:23:35;6.90;90.30
43089;DHT22;28709;52.030;5.652;2023-03-14T16:26:07;6.90;90.60
43089;DHT22;28709;52.030;5.652;2023-03-14T16:28:33;6.90;90.80
43089;DHT22;28709;52.030;5.652;2023-03-14T16:31:00;6.90;90.50
43089;DHT22;28709;52.030;5.652;2023-03-14T16:33:26;6.80;90.50
43089;DHT22;28709;52.030;5.652;2023-03-14T16:36:00;6.70;90.80
43089;DHT22;28709;52.030;5.652;2023-03-14T16:38:26;6.70;91.10
43089;DHT22;28709;52.030;5.652;2023-03-14T16:43:32;6.70;90.30
43089;DHT22;28709;52.030;5.652;2023-03-14T16:45:59;6.70;90.40
43089;DHT22;28709;52.030;5.652;2023-03-14T16:48:26;6.70;90.60
43089;DHT22;28709;52.030;5.652;2023-03-14T16:50:52;6.60;90.80
43089;DHT22;28709;52.030;5.652;2023-03-14T16:53:18;6.60;90.90
43089;DHT22;28709;52.030;5.652;2023-03-14T16:55:44;6.60;91.00
43089;DHT22;28709;52.030;5.652;2023-03-14T16:58:10;6.60;91.20